Time;durP1;ratioP1;P1;durP2;ratioP2;P2;SDS_P1;SDS_P2;PMS_P1;PMS_P2;Temp;Humidity;BMP_temperature;BMP_pressure;BME280_temperature;BME280_humidity;BME280_pressure;Samples;Min_cycle;Max_cycle;Signal;HPM_P1;HPM_P2
2021/12/23 00:01:19;;;;;;;24.15;10.50;;;4.50;59.80;;;;;;6251912;28;20168;-72
2021/12/23 00:04:20;;;;;;;22.63;10.07;;;4.50;59.90;;;;;;6253091;28;20327;-72
2021/12/23 00:07:21;;;;;;;32.38;11.43;;;4.40;59.90;;;;;;6250909;28;20111;-72
2021/12/23 00:10:22;;;;;;;37.28;11.13;;;4.40;60.10;;;;;;6262764;28;20466;-72
2021/12/23 00:13:24;;;;;;;26.88;10.48;;;4.40;60.20;;;;;;6275709;28;20029;-72
2021/12/23 00:16:41;;;;;;;24.25;11.75;;;4.40;60.20;;;;;;6276893;28;20336;-72
2021/12/23 00:19:58;;;;;;;23.17;12.13;;;4.40;60.10;;;;;;6275241;28;20037;-72
2021/12/23 00:26:19;;;;;;;29.90;10.88;;;4.30;60.00;;;;;;6248764;28;20029;-72
2021/12/23 00:29:20;;;;;;;24.58;10.07;;;4.30;60.10;;;;;;6250180;28;20068;-72
2021/12/23 00:32:21;;;;;;;26.58;10.27;;;4.30;60.30;;;;;;6234720;28;20041;-72
2021/12/23 00:35:22;;;;;;;21.65;8.75;;;4.20;60.40;;;;;;6250404;28;20052;-71
2021/12/23 00:38:29;;;;;;;21.73;8.55;;;4.20;60.40;;;;;;6251532;28;20041;-71
2021/12/23 00:41:31;;;;;;;23.48;10.05;;;4.20;60.60;;;;;;6271442;28;20049;-71
2021/12/23 00:44:33;;;;;;;26.30;11.43;;;4.10;60.60;;;;;;6274880;28;20373;-71
2021/12/23 00:47:35;;;;;;;22.08;8.95;;;4.10;60.80;;;;;;6274612;28;20106;-71
2021/12/23 00:50:36;;;;;;;14.88;7.75;;;4.10;60.80;;;;;;6274814;28;20112;-71
2021/12/23 00:53:40;;;;;;;21.88;9.90;;;4.10;60.80;;;;;;6274727;28;20366;-71
2021/12/23 00:56:47;;;;;;;27.10;10.32;;;4.10;60.70;;;;;;6274255;28;20056;-71
2021/12/23 00:59:48;;;;;;;42.22;11.48;;;4.10;60.70;;;;;;6259181;28;20137;-71
2021/12/23 01:02:49;;;;;;;28.95;10.57;;;4.10;60.80;;;;;;6233882;28;20037;-71
2021/12/23 01:05:51;;;;;;;21.05;9.45;;;4.10;60.80;;;;;;6251115;28;20025;-71
2021/12/23 01:08:52;;;;;;;22.23;10.45;;;4.10;60.90;;;;;;6250455;28;20120;-71
2021/12/23 01:11:54;;;;;;;24.00;7.90;;;4.20;60.80;;;;;;6251292;28;20033;-71
2021/12/23 01:14:59;;;;;;;23.45;9.63;;;4.20;60.60;;;;;;6208415;28;20038;-71
2021/12/23 01:18:13;;;;;;;29.25;10.10;;;4.20;60.50;;;;;;6208925;28;20549;-72
2021/12/23 01:21:17;;;;;;;19.42;9.13;;;4.20;60.60;;;;;;6225685;28;20054;-71
2021/12/23 01:24:18;;;;;;;24.42;9.35;;;4.20;60.60;;;;;;6225296;28;20421;-71
2021/12/23 01:27:19;;;;;;;24.15;9.82;;;4.20;60.70;;;;;;6224327;28;20451;-72
2021/12/23 01:30:21;;;;;;;22.27;9.88;;;4.20;60.70;;;;;;6240067;28;20123;-71
2021/12/23 01:33:23;;;;;;;19.27;8.25;;;4.20;60.70;;;;;;6249909;28;20049;-71
2021/12/23 01:36:25;;;;;;;25.23;9.95;;;4.30;60.60;;;;;;6249865;28;20563;-71
2021/12/23 01:39:26;;;;;;;28.50;9.77;;;4.30;60.50;;;;;;6252930;28;20044;-71
2021/12/23 01:42:27;;;;;;;30.25;10.18;;;4.30;60.40;;;;;;6273227;28;20033;-72
2021/12/23 01:45:31;;;;;;;26.58;10.13;;;4.30;60.30;;;;;;6274667;28;20033;-71
2021/12/23 01:48:32;;;;;;;27.60;9.75;;;4.30;60.40;;;;;;6273173;28;20041;-71
2021/12/23 01:51:33;;;;;;;22.77;10.02;;;4.30;60.30;;;;;;6273552;28;20036;-71
2021/12/23 01:54:34;;;;;;;19.23;9.23;;;4.20;60.20;;;;;;6274071;28;20033;-71
2021/12/23 01:57:36;;;;;;;18.33;7.53;;;4.20;60.20;;;;;;6274264;28;20465;-71
2021/12/23 02:00:41;;;;;;;18.05;8.73;;;4.20;60.10;;;;;;6252476;28;20045;-71
2021/12/23 02:03:43;;;;;;;17.58;8.15;;;4.20;60.00;;;;;;6238247;28;20026;-71
2021/12/23 02:06:44;;;;;;;26.98;8.20;;;4.20;59.90;;;;;;6224986;28;20026;-71
2021/12/23 02:09:45;;;;;;;35.72;11.88;;;4.20;59.80;;;;;;6235127;28;20473;-71
2021/12/23 02:12:47;;;;;;;25.55;9.70;;;4.20;59.80;;;;;;6273122;28;20043;-71
2021/12/23 02:15:49;;;;;;;26.63;10.45;;;4.20;59.90;;;;;;6272093;28;20037;-71
2021/12/23 02:18:50;;;;;;;20.85;8.45;;;4.20;60.60;;;;;;6270703;28;20102;-71
2021/12/23 02:21:51;;;;;;;19.40;10.10;;;4.30;59.80;;;;;;6255737;28;20036;-71
2021/12/23 02:24:52;;;;;;;24.60;9.30;;;4.30;59.70;;;;;;6226432;28;20037;-71
2021/12/23 02:27:54;;;;;;;24.70;11.52;;;4.30;59.70;;;;;;6247321;28;20540;-71
2021/12/23 02:30:55;;;;;;;15.48;7.88;;;4.30;59.60;;;;;;6247968;28;20045;-71
2021/12/23 02:33:56;;;;;;;24.15;9.70;;;4.30;59.70;;;;;;6248500;28;20140;-71
2021/12/23 02:36:59;;;;;;;22.73;9.10;;;4.30;59.70;;;;;;6248422;28;20120;-71
2021/12/23 02:40:01;;;;;;;25.83;9.23;;;4.30;59.70;;;;;;6247538;28;20095;-71
2021/12/23 02:43:17;;;;;;;21.75;9.15;;;4.20;59.60;;;;;;6268310;28;20048;-71
2021/12/23 02:46:19;;;;;;;23.23;8.85;;;4.10;59.70;;;;;;6253793;28;20473;-71
2021/12/23 02:49:20;;;;;;;31.60;11.63;;;4.10;59.90;;;;;;6254275;28;20078;-71
2021/12/23 02:52:21;;;;;;;28.05;11.45;;;4.00;59.90;;;;;;6261899;28;20033;-71
2021/12/23 02:55:22;;;;;;;30.92;9.40;;;4.00;60.10;;;;;;6269197;28;20033;-72
2021/12/23 02:58:23;;;;;;;34.22;12.38;;;4.00;60.20;;;;;;6267776;28;20098;-71
2021/12/23 03:01:25;;;;;;;20.83;8.02;;;3.90;60.20;;;;;;6247184;28;20061;-71
2021/12/23 03:04:26;;;;;;;24.40;10.30;;;3.90;60.40;;;;;;6247792;28;20042;-71
2021/12/23 03:07:27;;;;;;;21.75;9.57;;;3.90;60.40;;;;;;6246442;28;20033;-71
2021/12/23 03:10:28;;;;;;;22.17;10.52;;;3.90;60.50;;;;;;6230219;28;20481;-71
2021/12/23 03:13:29;;;;;;;28.25;9.75;;;3.90;60.50;;;;;;6245466;28;20040;-71
2021/12/23 03:16:34;;;;;;;26.52;10.70;;;3.80;60.50;;;;;;6253953;28;20036;-71
2021/12/23 03:19:35;;;;;;;24.33;9.45;;;3.80;60.60;;;;;;6253132;28;20458;-71
2021/12/23 03:22:37;;;;;;;38.42;10.90;;;3.80;60.80;;;;;;6258767;28;20545;-72
2021/12/23 03:25:38;;;;;;;26.05;8.32;;;3.80;60.80;;;;;;6245408;28;20043;-72
2021/12/23 03:28:39;;;;;;;22.35;8.35;;;3.80;61.70;;;;;;6211669;28;20125;-71
2021/12/23 03:31:40;;;;;;;19.38;11.00;;;3.80;60.70;;;;;;6220723;28;20042;-71
2021/12/23 03:34:41;;;;;;;33.13;9.85;;;3.80;60.70;;;;;;6222742;28;20053;-71
2021/12/23 03:37:43;;;;;;;23.00;9.85;;;3.70;60.60;;;;;;6220778;28;20042;-71
2021/12/23 03:40:45;;;;;;;29.83;10.65;;;3.70;60.70;;;;;;6220742;28;20030;-71
2021/12/23 03:43:46;;;;;;;24.70;10.77;;;3.70;60.90;;;;;;6221731;28;20034;-71
2021/12/23 03:46:48;;;;;;;21.88;9.15;;;3.70;60.90;;;;;;6220699;28;20110;-70
2021/12/23 03:49:49;;;;;;;25.13;9.18;;;3.70;61.00;;;;;;6221903;28;20428;-71
2021/12/23 03:52:50;;;;;;;22.83;8.80;;;3.70;61.00;;;;;;6219661;28;20046;-70
2021/12/23 03:55:52;;;;;;;21.92;8.93;;;3.70;61.00;;;;;;6221239;28;20096;-70
2021/12/23 03:58:54;;;;;;;31.80;9.82;;;3.70;61.00;;;;;;6221169;28;20038;-70
2021/12/23 04:01:56;;;;;;;27.90;9.85;;;3.80;61.20;;;;;;6221771;28;20034;-71
2021/12/23 04:04:57;;;;;;;22.52;8.90;;;3.80;61.00;;;;;;6220485;28;20062;-71
2021/12/23 04:07:58;;;;;;;23.05;8.25;;;3.80;60.90;;;;;;6236714;28;20395;-71
2021/12/23 04:11:00;;;;;;;23.30;10.18;;;3.80;60.70;;;;;;6234573;28;20057;-71
2021/12/23 04:14:01;;;;;;;21.15;7.68;;;3.80;60.60;;;;;;6244849;28;20096;-71
2021/12/23 04:17:02;;;;;;;20.95;9.15;;;3.80;60.60;;;;;;6245934;28;20512;-71
2021/12/23 04:20:20;;;;;;;26.08;10.05;;;3.90;60.70;;;;;;6224939;28;20467;-70
2021/12/23 04:23:27;;;;;;;25.55;9.15;;;3.90;60.70;;;;;;6207846;28;20434;-70
2021/12/23 04:26:28;;;;;;;25.88;9.48;;;3.90;60.60;;;;;;6220394;28;20084;-70
2021/12/23 04:29:29;;;;;;;17.65;7.68;;;3.90;60.60;;;;;;6234239;28;20038;-70
2021/12/23 04:32:30;;;;;;;16.27;7.05;;;3.80;60.60;;;;;;6245611;28;20041;-70
2021/12/23 04:35:31;;;;;;;24.10;9.43;;;3.80;60.70;;;;;;6244613;28;20056;-71
2021/12/23 04:38:32;;;;;;;22.35;10.13;;;3.70;60.70;;;;;;6247270;28;20488;-71
2021/12/23 04:41:33;;;;;;;24.65;11.02;;;3.70;60.90;;;;;;6241372;28;20034;-71
2021/12/23 04:44:34;;;;;;;18.98;8.32;;;3.70;61.00;;;;;;6248602;28;20098;-72
2021/12/23 04:47:36;;;;;;;20.02;9.65;;;3.70;61.00;;;;;;6249978;28;20048;-71
2021/12/23 04:50:37;;;;;;;17.40;9.43;;;3.80;61.20;;;;;;6248912;28;20043;-71
2021/12/23 04:53:38;;;;;;;17.65;8.43;;;3.80;61.00;;;;;;6248985;28;20057;-72
2021/12/23 04:56:39;;;;;;;31.80;10.77;;;3.80;61.00;;;;;;6249898;28;20030;-71
2021/12/23 04:59:40;;;;;;;17.38;9.55;;;3.80;60.80;;;;;;6238405;28;20045;-71
2021/12/23 05:02:41;;;;;;;19.40;8.68;;;3.80;60.80;;;;;;6232142;28;20109;-71
2021/12/23 05:05:42;;;;;;;23.65;8.68;;;3.90;60.80;;;;;;6232059;28;20103;-72
2021/12/23 05:08:43;;;;;;;16.20;7.55;;;3.90;60.70;;;;;;6248497;28;20069;-72
2021/12/23 05:11:44;;;;;;;29.95;11.15;;;3.90;60.50;;;;;;6260780;28;20351;-72
2021/12/23 05:14:45;;;;;;;26.38;9.57;;;3.80;60.30;;;;;;6235104;28;20034;-72
2021/12/23 05:17:47;;;;;;;26.70;9.50;;;3.90;60.30;;;;;;6223385;28;20359;-72
2021/12/23 05:20:49;;;;;;;17.95;7.78;;;3.90;60.20;;;;;;6221380;28;20033;-71
2021/12/23 05:23:50;;;;;;;23.98;10.50;;;4.00;60.30;;;;;;6223476;28;20034;-70
2021/12/23 05:26:52;;;;;;;26.20;10.90;;;4.00;60.30;;;;;;6223145;28;20069;-70
2021/12/23 05:29:53;;;;;;;22.52;9.10;;;4.00;60.30;;;;;;6241790;28;20045;-70
2021/12/23 05:32:54;;;;;;;30.02;10.77;;;4.00;60.30;;;;;;6248327;28;20562;-70
2021/12/23 05:35:56;;;;;;;20.30;8.13;;;4.00;60.30;;;;;;6247271;28;20055;-70
2021/12/23 05:38:57;;;;;;;23.58;12.18;;;4.00;60.30;;;;;;6247600;28;20053;-70
2021/12/23 05:41:58;;;;;;;25.23;10.32;;;4.10;60.30;;;;;;6253581;28;20110;-70
2021/12/23 05:44:59;;;;;;;27.13;11.35;;;4.10;60.30;;;;;;6272916;28;20464;-71
2021/12/23 05:48:00;;;;;;;31.90;12.13;;;4.10;60.30;;;;;;6271787;28;20036;-70
2021/12/23 05:51:01;;;;;;;24.50;9.43;;;4.10;60.20;;;;;;6271635;28;20484;-70
2021/12/23 05:54:02;;;;;;;24.50;10.55;;;4.10;60.10;;;;;;6273029;28;20130;-70
2021/12/23 05:57:04;;;;;;;20.98;9.13;;;4.00;60.10;;;;;;6272696;28;20040;-70
2021/12/23 06:00:10;;;;;;;21.88;8.55;;;4.10;60.20;;;;;;6255001;28;20348;-70
2021/12/23 06:03:11;;;;;;;29.90;10.68;;;4.10;60.10;;;;;;6247888;28;20105;-70
2021/12/23 06:06:16;;;;;;;31.30;11.30;;;4.10;60.00;;;;;;6248568;28;20033;-70
2021/12/23 06:09:17;;;;;;;24.67;11.13;;;4.10;59.90;;;;;;6245718;28;20041;-70
2021/12/23 06:12:19;;;;;;;24.58;9.30;;;4.10;59.90;;;;;;6223239;28;20117;-71
2021/12/23 06:15:20;;;;;;;26.15;10.38;;;4.10;60.00;;;;;;6223773;28;20037;-71
2021/12/23 06:18:21;;;;;;;26.33;10.95;;;4.10;59.90;;;;;;6160886;28;20038;-71
2021/12/23 06:21:26;;;;;;;25.30;11.18;;;4.10;59.90;;;;;;6216776;28;20029;-71
2021/12/23 06:24:27;;;;;;;17.85;8.52;;;4.00;59.90;;;;;;6251908;28;20037;-71
2021/12/23 06:27:28;;;;;;;18.48;8.63;;;3.90;60.00;;;;;;6246431;28;20041;-71
2021/12/23 06:30:30;;;;;;;32.70;9.45;;;3.90;60.20;;;;;;6222155;28;20034;-71
2021/12/23 06:33:31;;;;;;;18.80;8.13;;;3.80;60.20;;;;;;6223736;28;20038;-71
2021/12/23 06:36:32;;;;;;;22.92;9.63;;;3.80;60.40;;;;;;6221664;28;20112;-71
2021/12/23 06:39:34;;;;;;;23.30;9.43;;;3.70;60.40;;;;;;6224743;28;20042;-71
2021/12/23 06:42:36;;;;;;;20.08;10.70;;;3.70;60.70;;;;;;6261284;28;20477;-71
2021/12/23 06:45:37;;;;;;;19.58;9.45;;;3.60;60.90;;;;;;6271493;28;20028;-71
2021/12/23 06:48:38;;;;;;;20.40;9.85;;;3.60;61.00;;;;;;6270899;28;20116;-71
2021/12/23 06:51:39;;;;;;;38.22;10.43;;;3.60;61.00;;;;;;6270664;28;20033;-72
2021/12/23 06:54:47;;;;;;;22.30;10.00;;;3.60;61.10;;;;;;6270322;28;20052;-72
2021/12/23 06:57:53;;;;;;;21.58;8.90;;;3.60;61.10;;;;;;6246533;28;20029;-72
2021/12/23 07:00:55;;;;;;;21.45;8.48;;;3.60;61.10;;;;;;6220961;28;20045;-71
2021/12/23 07:07:40;;;;;;;25.42;9.32;;;3.70;61.20;;;;;;6170174;28;20054;-71
2021/12/23 07:10:41;;;;;;;30.40;9.27;;;3.70;61.40;;;;;;6154103;28;20031;-71
2021/12/23 07:13:42;;;;;;;20.20;9.88;;;3.80;61.40;;;;;;6171228;28;20031;-71
2021/12/23 07:16:43;;;;;;;28.25;10.20;;;3.80;61.30;;;;;;6170378;28;20448;-71
2021/12/23 07:19:44;;;;;;;18.63;8.60;;;3.90;61.30;;;;;;6170347;28;20385;-71
2021/12/23 07:22:45;;;;;;;21.00;8.98;;;4.00;61.40;;;;;;6139250;28;20041;-71
2021/12/23 07:25:46;;;;;;;23.17;11.07;;;4.10;61.20;;;;;;6154567;28;20031;-71
2021/12/23 07:28:48;;;;;;;23.85;8.73;;;4.10;60.90;;;;;;6174870;28;20460;-71
2021/12/23 07:31:49;;;;;;;20.33;9.65;;;4.20;60.80;;;;;;6194990;28;20110;-71
2021/12/23 07:34:50;;;;;;;27.63;10.23;;;4.20;60.70;;;;;;6155197;28;20061;-71
2021/12/23 07:37:52;;;;;;;24.63;10.15;;;4.30;60.60;;;;;;6187196;28;20448;-72
2021/12/23 07:40:53;;;;;;;22.42;10.20;;;4.40;60.50;;;;;;6186543;28;20047;-72
2021/12/23 07:43:59;;;;;;;23.38;9.50;;;4.40;60.20;;;;;;6251017;28;20065;-72
2021/12/23 07:47:01;;;;;;;24.23;10.95;;;4.50;60.00;;;;;;6210089;28;20519;-72
2021/12/23 07:50:02;;;;;;;21.35;8.82;;;4.50;60.00;;;;;;6246031;28;20095;-72
2021/12/23 07:53:03;;;;;;;26.80;7.45;;;4.50;59.90;;;;;;6244354;28;20049;-72
2021/12/23 07:56:05;;;;;;;18.73;7.53;;;4.60;59.70;;;;;;6245303;28;20191;-72
2021/12/23 07:59:06;;;;;;;30.48;11.93;;;4.60;59.50;;;;;;6241591;28;20094;-72
2021/12/23 08:02:09;;;;;;;21.48;9.88;;;4.60;59.50;;;;;;6246520;28;20045;-72
2021/12/23 08:05:10;;;;;;;21.80;9.95;;;4.60;59.50;;;;;;6244783;28;20041;-71
2021/12/23 08:08:11;;;;;;;26.27;10.55;;;4.60;59.30;;;;;;6244119;28;20072;-73
2021/12/23 08:11:12;;;;;;;21.33;8.60;;;4.50;59.30;;;;;;6240923;28;20036;-71
2021/12/23 08:14:13;;;;;;;21.45;10.00;;;4.50;59.30;;;;;;6272667;28;20040;-72
2021/12/23 08:17:14;;;;;;;22.85;10.05;;;4.40;59.10;;;;;;6273598;28;20370;-72
2021/12/23 08:20:16;;;;;;;20.52;8.50;;;4.40;59.30;;;;;;6261773;28;20048;-72
2021/12/23 08:23:17;;;;;;;20.35;8.32;;;4.40;59.30;;;;;;6249776;28;20040;-72
2021/12/23 08:26:22;;;;;;;23.90;8.43;;;4.30;59.30;;;;;;6223489;28;20038;-72
2021/12/23 08:29:24;;;;;;;20.98;8.43;;;4.30;59.40;;;;;;6238831;28;20454;-71
2021/12/23 08:32:25;;;;;;;21.98;8.02;;;4.30;59.40;;;;;;6232654;28;20040;-71
2021/12/23 08:35:26;;;;;;;23.42;8.38;;;4.30;59.30;;;;;;6248057;28;20046;-71
2021/12/23 08:38:27;;;;;;;14.50;7.38;;;4.30;59.30;;;;;;6248495;28;20057;-72
2021/12/23 08:41:28;;;;;;;25.92;10.13;;;4.30;59.30;;;;;;6265644;28;20033;-71
2021/12/23 08:44:29;;;;;;;15.38;6.57;;;4.30;59.50;;;;;;6273793;28;20420;-71
2021/12/23 08:47:32;;;;;;;21.90;10.70;;;4.30;59.50;;;;;;6273554;28;20041;-72
2021/12/23 08:50:33;;;;;;;27.52;9.52;;;4.40;59.40;;;;;;6274347;28;20071;-72
2021/12/23 08:53:34;;;;;;;22.40;9.75;;;4.50;59.40;;;;;;6273650;28;20354;-72
2021/12/23 08:56:35;;;;;;;21.13;8.82;;;4.50;59.20;;;;;;6274923;28;20041;-71
2021/12/23 08:59:37;;;;;;;15.43;6.70;;;4.60;59.00;;;;;;6261402;28;20342;-72
2021/12/23 09:02:38;;;;;;;21.13;9.57;;;4.50;58.90;;;;;;6236154;28;20025;-73
2021/12/23 09:05:40;;;;;;;23.52;9.40;;;4.60;59.00;;;;;;6249688;28;20171;-72
2021/12/23 09:08:41;;;;;;;19.05;8.95;;;4.70;58.90;;;;;;6266253;28;20037;-72
2021/12/23 09:11:43;;;;;;;15.40;7.43;;;4.80;58.90;;;;;;6266302;28;20099;-71
2021/12/23 09:14:45;;;;;;;23.05;9.27;;;4.90;58.80;;;;;;6247568;28;20374;-73
2021/12/23 09:17:46;;;;;;;19.20;8.82;;;4.90;58.60;;;;;;6249973;28;20026;-73
2021/12/23 09:20:48;;;;;;;21.63;8.98;;;5.00;58.50;;;;;;6250126;28;20056;-72
2021/12/23 09:23:50;;;;;;;17.83;8.10;;;5.10;58.40;;;;;;6249604;28;20573;-71
2021/12/23 09:26:57;;;;;;;16.65;7.03;;;5.10;58.30;;;;;;6247348;28;20060;-73
2021/12/23 09:33:20;;;;;;;18.42;7.65;;;5.30;57.80;;;;;;6251455;28;20033;-71
2021/12/23 09:36:21;;;;;;;26.05;9.85;;;5.40;57.70;;;;;;6265236;28;20037;-71
2021/12/23 09:39:23;;;;;;;21.95;9.07;;;5.30;57.50;;;;;;6264693;28;20029;-73
2021/12/23 09:42:29;;;;;;;17.60;7.20;;;5.40;57.60;;;;;;6273166;28;20037;-71
2021/12/23 09:45:31;;;;;;;18.60;9.05;;;5.50;57.60;;;;;;6273242;28;20454;-72
2021/12/23 09:48:33;;;;;;;18.48;9.18;;;5.50;57.30;;;;;;6250696;28;20044;-72
2021/12/23 09:51:36;;;;;;;24.30;8.25;;;5.60;57.20;;;;;;6275786;28;20203;-72
2021/12/23 09:54:41;;;;;;;28.25;9.50;;;5.60;57.10;;;;;;6274674;28;20496;-72
2021/12/23 09:57:45;;;;;;;26.17;9.68;;;5.60;56.90;;;;;;6272787;28;20110;-72
2021/12/23 10:00:47;;;;;;;23.55;8.63;;;5.80;57.00;;;;;;6249716;28;20025;-72
2021/12/23 10:03:48;;;;;;;27.85;12.57;;;6.10;56.50;;;;;;6250004;28;20045;-72
2021/12/23 10:06:51;;;;;;;33.45;11.77;;;6.40;56.10;;;;;;6231418;28;20040;-72
2021/12/23 10:10:17;;;;;;;22.58;9.85;;;6.70;55.70;;;;;;6268318;28;20060;-72
2021/12/23 10:26:57;;;;;;;27.55;12.10;;;6.90;55.00;;;;;;6273407;28;20044;-71
2021/12/23 10:27:08;;;;;;;25.00;9.18;;;7.70;53.00;;;;;;6238362;28;20036;-71
2021/12/23 10:30:55;;;;;;;35.53;10.77;;;7.90;52.80;;;;;;6252526;28;20055;-71
2021/12/23 10:33:49;;;;;;;31.35;13.20;;;8.10;52.50;;;;;;6251433;28;20297;-72
2021/12/23 10:37:31;;;;;;;53.25;21.15;;;8.40;52.00;;;;;;6242285;28;20045;-72
2021/12/23 10:40:29;;;;;;;34.47;13.48;;;8.70;51.70;;;;;;6243002;28;20037;-72
2021/12/23 10:43:37;;;;;;;36.67;13.15;;;8.90;51.30;;;;;;6247218;28;20045;-73
2021/12/23 10:46:41;;;;;;;26.95;12.23;;;9.20;50.90;;;;;;6246550;28;20037;-71
2021/12/23 10:49:49;;;;;;;24.25;10.70;;;9.60;49.90;;;;;;6229938;28;20034;-74
2021/12/23 10:53:09;;;;;;;49.72;14.88;;;9.90;48.80;;;;;;6245063;28;20402;-71
2021/12/23 10:59:32;;;;;;;41.40;14.80;;;10.50;46.80;;;;;;6250152;28;20037;-72
2021/12/23 11:02:36;;;;;;;22.27;9.25;;;10.80;46.00;;;;;;6265148;28;20104;-72
2021/12/23 11:05:47;;;;;;;26.38;8.10;;;11.00;45.80;;;;;;6246863;28;20066;-72
2021/12/23 11:08:57;;;;;;;14.77;7.50;;;11.40;45.20;;;;;;6243067;28;20482;-72
2021/12/23 11:27:25;;;;;;;29.52;11.23;;;11.80;44.30;;;;;;6263105;28;20041;-73
2021/12/23 11:45:50;;;;;;;40.25;14.18;;;13.70;38.20;;;;;;6251891;28;20067;-72
2021/12/23 11:48:54;;;;;;;36.70;13.65;;;13.20;39.20;;;;;;6270666;28;20045;-72
2021/12/23 11:51:55;;;;;;;26.27;9.70;;;12.70;40.00;;;;;;6271790;28;20106;-71
2021/12/23 11:54:57;;;;;;;35.17;11.27;;;12.40;40.70;;;;;;6272051;28;20053;-73
2021/12/23 11:57:58;;;;;;;16.92;7.30;;;12.10;41.20;;;;;;6272273;28;20121;-71
2021/12/23 12:01:11;;;;;;;13.70;5.93;;;11.90;41.40;;;;;;6240427;28;20029;-73
2021/12/23 12:04:22;;;;;;;27.88;10.82;;;11.60;41.70;;;;;;6259359;28;20033;-73
2021/12/23 12:07:25;;;;;;;23.05;9.43;;;11.40;42.10;;;;;;6246657;28;20077;-72
2021/12/23 12:10:26;;;;;;;16.77;7.30;;;11.30;42.50;;;;;;6250980;28;20166;-72
2021/12/23 12:13:31;;;;;;;15.65;6.50;;;11.20;42.70;;;;;;6254343;28;20045;-72
2021/12/23 12:16:35;;;;;;;22.08;7.20;;;11.10;42.70;;;;;;6271959;28;20033;-72
2021/12/23 12:19:59;;;;;;;28.58;7.13;;;11.00;42.00;;;;;;6273412;28;20029;-72
2021/12/23 12:23:06;;;;;;;28.60;10.73;;;10.80;42.00;;;;;;6271280;28;20128;-73
2021/12/23 12:26:10;;;;;;;48.40;16.17;;;10.70;42.30;;;;;;6245055;28;20030;-70
2021/12/23 12:29:13;;;;;;;15.52;7.60;;;10.70;42.20;;;;;;6245356;28;20114;-72
2021/12/23 12:32:34;;;;;;;12.65;5.80;;;10.60;42.00;;;;;;6243555;28;20032;-73
2021/12/23 12:35:35;;;;;;;9.65;4.70;;;10.50;42.50;;;;;;6244773;28;20067;-72
2021/12/23 12:38:46;;;;;;;13.43;6.20;;;10.50;42.70;;;;;;6222935;28;20041;-72
2021/12/23 12:41:47;;;;;;;15.77;5.53;;;10.50;42.80;;;;;;6226627;28;20037;-72
2021/12/23 12:44:54;;;;;;;8.70;4.50;;;10.50;42.90;;;;;;6242543;28;20148;-72
2021/12/23 12:48:00;;;;;;;11.10;5.05;;;10.50;42.90;;;;;;6254208;28;20111;-72
2021/12/23 12:51:01;;;;;;;15.45;4.57;;;10.60;43.10;;;;;;6247683;28;20544;-73
2021/12/23 12:54:30;;;;;;;17.98;5.18;;;10.60;43.00;;;;;;6246654;28;20065;-72
2021/12/23 12:57:36;;;;;;;21.77;6.73;;;10.50;43.30;;;;;;6175510;28;20149;-74
2021/12/23 13:00:40;;;;;;;19.15;6.28;;;10.60;43.60;;;;;;6157424;28;20354;-73
2021/12/23 13:03:53;;;;;;;15.45;6.70;;;10.60;43.80;;;;;;6195923;28;20045;-70
2021/12/23 13:06:56;;;;;;;16.10;5.75;;;10.60;44.10;;;;;;6192968;28;20046;-72
2021/12/23 13:10:19;;;;;;;14.75;6.38;;;10.60;44.10;;;;;;6193768;28;20057;-72
2021/12/23 13:14:00;;;;;;;17.88;6.40;;;10.60;44.20;;;;;;6121718;29;20043;-71
2021/12/23 13:17:24;;;;;;;17.95;7.15;;;10.60;44.30;;;;;;6112342;29;20040;-72
2021/12/23 13:20:52;;;;;;;24.45;10.35;;;10.60;44.50;;;;;;6076327;29;20035;-72
2021/12/23 13:24:00;;;;;;;21.50;8.32;;;10.70;44.90;;;;;;6082451;29;20040;-72
2021/12/23 13:27:01;;;;;;;14.55;7.20;;;10.70;44.80;;;;;;6098562;29;20060;-72
2021/12/23 13:30:09;;;;;;;15.32;6.63;;;10.70;44.80;;;;;;6081369;29;20053;-72
2021/12/23 13:33:12;;;;;;;20.55;6.63;;;10.70;44.90;;;;;;6079547;29;20129;-71
2021/12/23 13:36:19;;;;;;;16.77;5.72;;;10.80;44.90;;;;;;6096241;29;20458;-72
2021/12/23 13:39:26;;;;;;;11.55;5.63;;;10.80;44.80;;;;;;6097662;29;20036;-72
2021/12/23 13:42:27;;;;;;;16.60;6.07;;;10.80;44.80;;;;;;6117239;29;20123;-72
2021/12/23 13:45:30;;;;;;;21.55;8.52;;;10.90;44.60;;;;;;6097049;29;20088;-72
2021/12/23 13:48:31;;;;;;;22.65;11.38;;;10.90;44.50;;;;;;6109310;28;20328;-73
2021/12/23 13:51:39;;;;;;;17.75;6.60;;;10.90;44.60;;;;;;6214710;28;20064;-72
2021/12/23 13:54:41;;;;;;;21.40;7.47;;;10.90;44.70;;;;;;6220794;28;20042;-71
2021/12/23 13:57:51;;;;;;;12.15;5.68;;;10.90;44.70;;;;;;6212400;28;20124;-72
2021/12/23 14:00:52;;;;;;;21.55;9.05;;;10.90;44.50;;;;;;6235146;28;20045;-71
2021/12/23 14:03:53;;;;;;;15.35;6.30;;;10.90;44.40;;;;;;6261404;28;20051;-72
2021/12/23 14:06:54;;;;;;;16.73;5.28;;;10.90;44.30;;;;;;6242530;28;20478;-74
2021/12/23 14:10:10;;;;;;;19.50;6.63;;;11.00;44.50;;;;;;6244405;28;20479;-72
2021/12/23 14:13:19;;;;;;;18.63;6.78;;;10.90;44.60;;;;;;6252030;28;20419;-72
2021/12/23 14:16:43;;;;;;;13.40;5.03;;;10.90;44.60;;;;;;6268592;28;20057;-74
2021/12/23 14:20:09;;;;;;;15.05;5.35;;;11.00;44.60;;;;;;6252805;28;20025;-72
2021/12/23 14:23:12;;;;;;;10.02;4.55;;;11.00;44.40;;;;;;6269931;28;20414;-72
2021/12/23 14:26:18;;;;;;;16.73;6.13;;;11.00;44.30;;;;;;6268265;28;20033;-71
2021/12/23 14:29:21;;;;;;;10.70;4.38;;;11.00;44.30;;;;;;6240807;28;20098;-73
2021/12/23 14:32:22;;;;;;;17.60;4.70;;;11.00;44.20;;;;;;6227273;28;20048;-71
2021/12/23 14:35:27;;;;;;;9.55;4.50;;;11.00;44.20;;;;;;6243869;28;20037;-72
2021/12/23 14:38:31;;;;;;;9.48;4.45;;;11.00;44.10;;;;;;6244123;28;20373;-72
2021/12/23 14:41:49;;;;;;;8.35;4.13;;;11.00;44.10;;;;;;6257091;28;20102;-71
2021/12/23 14:45:01;;;;;;;10.27;4.25;;;11.00;44.00;;;;;;6269706;28;20041;-72
2021/12/23 14:48:12;;;;;;;17.63;4.85;;;11.00;43.90;;;;;;6266718;28;20082;-71
2021/12/23 14:51:24;;;;;;;19.80;7.78;;;11.00;43.90;;;;;;6272437;28;20107;-73
2021/12/23 14:54:26;;;;;;;31.30;7.95;;;11.10;44.00;;;;;;6272982;28;20024;-73
2021/12/23 14:57:53;;;;;;;20.15;7.43;;;11.00;43.70;;;;;;6270438;28;20361;-71
2021/12/23 15:00:54;;;;;;;10.15;4.70;;;11.00;43.70;;;;;;6241034;28;20065;-72
2021/12/23 15:04:18;;;;;;;11.88;5.53;;;11.00;43.70;;;;;;6230552;28;20065;-72
2021/12/23 15:07:19;;;;;;;17.98;5.75;;;11.00;44.00;;;;;;6219194;28;20121;-73
2021/12/23 15:10:31;;;;;;;10.27;5.10;;;11.00;44.10;;;;;;6239799;28;20116;-72
2021/12/23 15:13:35;;;;;;;17.02;7.32;;;10.90;44.00;;;;;;6266470;28;20061;-72
2021/12/23 15:16:36;;;;;;;21.20;6.57;;;10.90;43.90;;;;;;6268576;28;20116;-72
2021/12/23 15:19:40;;;;;;;14.43;5.43;;;10.90;44.00;;;;;;6251248;28;20476;-72
2021/12/23 15:22:44;;;;;;;17.75;5.40;;;10.90;44.20;;;;;;6258645;28;20053;-72
2021/12/23 15:25:45;;;;;;;11.10;5.57;;;10.90;44.20;;;;;;6241866;28;20045;-72
2021/12/23 15:29:10;;;;;;;11.43;4.65;;;10.90;44.20;;;;;;6240128;28;20471;-71
2021/12/23 15:32:16;;;;;;;11.27;5.25;;;10.90;44.40;;;;;;6219748;28;20363;-72
2021/12/23 15:35:20;;;;;;;11.30;5.35;;;10.80;44.40;;;;;;6193647;28;20046;-71
2021/12/23 15:38:21;;;;;;;22.15;6.03;;;10.80;44.40;;;;;;6212843;28;20100;-72
2021/12/23 15:41:22;;;;;;;14.05;6.55;;;10.80;44.50;;;;;;6240567;28;20099;-73
2021/12/23 15:44:25;;;;;;;20.60;8.07;;;10.80;44.50;;;;;;6268017;28;20057;-71
2021/12/23 15:47:28;;;;;;;18.77;6.75;;;10.80;44.50;;;;;;6266309;28;20040;-72
2021/12/23 15:50:32;;;;;;;13.95;5.97;;;10.80;44.20;;;;;;6268584;28;20068;-72
2021/12/23 15:53:34;;;;;;;12.48;5.32;;;10.80;44.10;;;;;;6250845;28;20029;-72
2021/12/23 15:56:35;;;;;;;15.82;7.20;;;10.70;44.00;;;;;;6266914;28;20029;-72
2021/12/23 15:59:36;;;;;;;28.90;10.23;;;10.70;43.60;;;;;;6254094;28;20443;-72
2021/12/23 16:02:38;;;;;;;23.92;5.97;;;10.70;43.30;;;;;;6244114;28;20037;-72
2021/12/23 16:08:40;;;;;;;19.55;6.35;;;10.60;43.30;;;;;;6242364;28;20049;-72
2021/12/23 16:11:41;;;;;;;10.52;4.47;;;10.50;43.20;;;;;;6256194;28;20108;-71
2021/12/23 16:14:44;;;;;;;8.70;4.03;;;10.50;43.00;;;;;;6243607;28;20454;-71
2021/12/23 16:17:46;;;;;;;13.55;4.00;;;10.40;43.00;;;;;;6261172;28;20025;-72
2021/12/23 16:20:47;;;;;;;13.65;4.53;;;10.40;42.90;;;;;;6269107;28;20040;-72
2021/12/23 16:23:48;;;;;;;18.88;6.40;;;10.30;42.90;;;;;;6266721;28;20159;-74
2021/12/23 16:26:51;;;;;;;19.73;8.98;;;10.20;43.10;;;;;;6256121;28;20025;-72
2021/12/23 16:30:11;;;;;;;12.45;5.50;;;10.20;43.10;;;;;;6218035;28;20558;-72
2021/12/23 16:33:13;;;;;;;7.38;4.32;;;10.20;43.20;;;;;;6239145;28;20323;-72
2021/12/23 16:36:15;;;;;;;13.73;4.85;;;10.20;43.10;;;;;;6228102;28;20049;-72
2021/12/23 16:39:16;;;;;;;15.43;8.00;;;10.10;43.20;;;;;;6247764;28;20494;-72
2021/12/23 16:42:25;;;;;;;23.58;9.52;;;10.10;43.30;;;;;;6257222;28;20067;-72
2021/12/23 16:45:28;;;;;;;11.80;4.68;;;10.10;43.50;;;;;;6272092;28;20110;-72
2021/12/23 16:48:29;;;;;;;19.73;7.07;;;10.00;43.60;;;;;;6270290;28;20121;-71